1990 GREGOARA:WALTER (1990062S13091)


On this page: IBTrACS data - Map and Plots - Positions - Intensities - Original source data

Summary

Start Mar 3
End Mar 27
Basin SI
LMI 110 kt
Sources jtwc_sh
bom
neumann
neumann
jtwc_sh
reunion
In WMO? Yes
Previous storm 1990 HILDA (SP)
Previous in basin 1990 EDISOANA (SI)
Concurrent storms 1990 VINCENT (SI)
1990 EDISOANA (SI)
1990 GREG (SP)
1990 HILDA (SP)
1990 GREGOARA (SI)
1990 FELANA (SI)
1990 IVOR (SP)
1990 ALEX (SI)
1990 RAE7 (SP)
1990 RAE (SP)
1990 RAE (SP)
Next in basin 1990 FELANA (SI)
Next storm 1990 FELANA (SI)

top of page IBTrACS Data: File Access

top of page HURSAT Data: File Access

Image of storm

top of page Plots:

Map of storm track will not appear if FTP is down
Time series of cyclone Maximum Sustained Wind will not appear if FTP is down
Time series of cyclone Minimum Central Pressure will not appear if FTP is down

top of page Track Data:Position

jtwc_sh bom neumann neumann jtwc_sh reunion
Date Lat Lon Lat Lon Lat Lon Lat Lon Lat Lon Lat Lon
1990-03-03 00:00:00 -13.2 90.7
1990-03-03 06:00:00 -13.3 91.5
1990-03-03 12:00:00 -13.5 92.0
1990-03-03 18:00:00 -13.7 92.5 -14.6 94.0 -14.6 94.0
1990-03-04 00:00:00 -14.2 93.3 -14.8 94.0 -14.8 94.0
1990-03-04 06:00:00 -15.1 94.1 -15.2 94.1 -15.2 94.1
1990-03-04 12:00:00 -15.8 94.4 -15.7 94.4 -15.7 94.4
1990-03-04 18:00:00 -16.6 94.6 -16.2 94.8 -16.2 94.8
1990-03-05 00:00:00 -17.2 95.0 -17.0 95.5 -17.0 95.5
1990-03-05 06:00:00 -17.7 95.6 -17.7 96.2 -17.7 96.2
1990-03-05 12:00:00 -18.5 96.1 -18.3 96.8 -18.3 96.8
1990-03-05 18:00:00 -19.4 96.6 -19.2 97.4 -19.2 97.4
1990-03-06 00:00:00 -20.1 97.1 -20.0 98.0 -20.0 98.0
1990-03-06 06:00:00 -20.7 97.5 -20.5 98.2 -20.5 98.2
1990-03-06 12:00:00 -21.2 97.7 -21.0 98.0 -21.0 98.0
1990-03-06 18:00:00 -21.7 97.4 -21.3 97.5 -21.3 97.5
1990-03-07 00:00:00 -21.2 96.8 -21.2 96.8
1990-03-07 06:00:00 -21.1 95.8 -21.1 95.8
1990-03-07 12:00:00 -20.9 95.6 -20.9 95.6
1990-03-07 18:00:00 -20.5 95.0 -20.5 95.0
1990-03-08 00:00:00 -20.2 94.9 -20.2 94.9
1990-03-08 06:00:00 -19.8 95.0 -19.8 95.0
1990-03-08 12:00:00 -19.3 95.1 -19.3 95.1
1990-03-08 18:00:00 -18.6 95.4 -18.6 95.4
1990-03-09 00:00:00 -17.5 95.9 -17.5 95.9
jtwc_sh bom neumann neumann jtwc_sh reunion
1990-03-09 06:00:00 -17.0 96.3 -17.0 96.3
1990-03-09 12:00:00 -16.6 96.6 -16.6 96.6
1990-03-09 18:00:00 -16.2 96.8 -16.2 96.8
1990-03-10 00:00:00 -15.8 97.2 -15.8 97.2
1990-03-10 06:00:00 -15.4 97.8 -15.4 97.8
1990-03-10 12:00:00 -15.2 98.2 -15.2 98.2
1990-03-10 18:00:00 -14.8 98.3 -14.8 98.3
1990-03-11 00:00:00 -14.3 98.4 -14.3 98.4 -12.0 98.0 -12.0 98.0
1990-03-11 06:00:00 -14.0 98.2 -14.0 98.2 -12.5 97.9 -12.5 97.9
1990-03-11 12:00:00 -13.8 98.0 -13.8 98.0 -13.0 97.8 -13.0 97.8
1990-03-11 18:00:00 -13.5 97.7 -13.5 97.7 -13.3 97.5 -13.3 97.5
1990-03-12 00:00:00 -13.3 97.4 -13.3 97.4 -13.4 97.0 -13.4 97.0
1990-03-12 06:00:00 -13.2 97.0 -13.2 97.0 -13.4 96.4 -13.4 96.4
1990-03-12 12:00:00 -12.8 95.7 -12.8 95.7 -13.3 95.6 -13.3 95.6
1990-03-12 18:00:00 -12.6 94.4 -12.6 94.4 -13.2 94.5 -13.2 94.5
1990-03-13 00:00:00 -12.3 93.2 -12.3 93.2 -12.8 93.3 -12.8 93.3
1990-03-13 06:00:00 -12.1 91.8 -12.1 91.8 -12.3 91.9 -12.3 91.9
1990-03-13 12:00:00 -12.0 90.8 -12.0 90.8 -11.8 90.8 -11.8 90.8
1990-03-13 18:00:00 -11.8 89.6 -11.8 89.6 -11.5 90.0 -11.5 90.0
1990-03-14 00:00:00 -11.7 89.0 -11.7 89.0 -11.3 89.4 -11.3 89.4
1990-03-14 06:00:00 -11.6 88.5 -11.6 88.5 -11.2 88.6 -11.2 88.6
1990-03-14 12:00:00 -11.6 87.8 -11.6 87.8 -11.4 87.8 -11.4 87.8
1990-03-14 18:00:00 -11.6 87.0 -11.6 87.0
1990-03-15 00:00:00 -11.9 86.2 -11.9 86.2
jtwc_sh bom neumann neumann jtwc_sh reunion
1990-03-15 06:00:00 -12.1 85.5 -12.1 85.5 -11.5 85.0
1990-03-15 12:00:00 -12.3 84.7 -12.3 84.7 -12.0 84.5
1990-03-15 18:00:00 -12.7 84.3 -12.7 84.3 -12.5 84.0
1990-03-16 00:00:00 -13.1 84.0 -13.1 84.0 -13.0 83.8
1990-03-16 06:00:00 -13.6 83.8 -13.6 83.8 -13.4 83.5
1990-03-16 12:00:00 -14.0 83.7 -14.0 83.7 -13.9 83.3
1990-03-16 18:00:00 -14.4 83.3 -14.4 83.3 -14.5 83.2
1990-03-17 00:00:00 -14.8 83.2 -14.8 83.2 -14.9 83.1
1990-03-17 06:00:00 -15.3 82.9 -15.3 82.9 -15.4 82.9
1990-03-17 12:00:00 -15.7 82.5 -15.7 82.5 -16.0 82.6
1990-03-17 18:00:00 -16.1 82.2 -16.1 82.2 -16.5 82.2
1990-03-18 00:00:00 -16.5 81.7 -16.5 81.7 -16.9 81.5
1990-03-18 06:00:00 -16.9 81.1 -16.9 81.1 -17.2 81.0
1990-03-18 12:00:00 -17.3 80.4 -17.3 80.4 -17.8 80.2
1990-03-18 18:00:00 -17.8 79.6 -17.8 79.6 -18.0 79.4
1990-03-19 00:00:00 -18.2 78.9 -18.2 78.9 -18.4 78.7
1990-03-19 06:00:00 -18.7 78.4 -18.7 78.4 -19.0 78.2
1990-03-19 12:00:00 -19.4 77.9 -19.4 77.9 -19.6 77.9
1990-03-19 18:00:00 -20.2 77.4 -20.2 77.4 -20.2 77.7
1990-03-20 00:00:00 -20.9 77.2 -20.9 77.2 -20.9 77.5
1990-03-20 06:00:00 -21.5 77.1 -21.5 77.1 -21.2 77.2
1990-03-20 12:00:00 -22.0 76.9 -22.0 76.9 -21.9 76.9
1990-03-20 18:00:00 -22.2 76.5 -22.2 76.5 -22.3 76.3
1990-03-21 00:00:00 -22.3 75.9 -22.3 75.9 -22.7 75.9
jtwc_sh bom neumann neumann jtwc_sh reunion
1990-03-21 06:00:00 -22.7 75.2 -22.7 75.2 -23.0 75.2
1990-03-21 12:00:00 -23.3 74.8 -23.3 74.8 -23.4 74.5
1990-03-21 18:00:00 -24.0 74.6 -24.0 74.6 -24.0 74.1
1990-03-22 00:00:00 -24.8 74.5 -24.8 74.5 -24.8 74.0
1990-03-22 06:00:00 -25.6 75.0 -25.6 75.0 -25.3 74.0
1990-03-22 12:00:00 -26.2 75.6 -26.2 75.6 -25.8 74.5
1990-03-22 18:00:00 -26.8 76.3 -26.8 76.3 -26.0 75.4
1990-03-23 00:00:00 -27.2 77.1 -27.2 77.1 -26.1 76.5
1990-03-23 06:00:00 -27.6 78.2 -27.6 78.2 -26.2 77.2
1990-03-23 12:00:00 -27.9 79.3 -27.9 79.3 -26.4 77.5
1990-03-23 18:00:00 -28.3 80.7 -28.3 80.7 -26.7 77.7
1990-03-24 00:00:00 -28.4 82.1 -28.4 82.1 -27.0 77.7
1990-03-24 06:00:00 -27.2 77.3
1990-03-24 12:00:00 -27.5 77.1
1990-03-24 18:00:00 -27.7 76.9
1990-03-25 00:00:00 -27.8 76.5
1990-03-25 06:00:00 -28.0 76.2
1990-03-25 12:00:00 -28.7 75.4
1990-03-25 18:00:00 -29.4 74.7
1990-03-26 00:00:00 -30.0 74.5
1990-03-26 06:00:00 -31.0 75.0
1990-03-26 12:00:00 -31.3 75.8
1990-03-26 18:00:00 -31.7 76.7
1990-03-27 00:00:00 -31.9 77.7
jtwc_sh bom neumann neumann jtwc_sh reunion
1990-03-27 06:00:00 -32.0 78.4

top of pageTrack Data:Intensity

jtwc_sh bom neumann neumann jtwc_sh reunion
Date Wind Pres Wind Pres Wind Pres Wind Pres Wind Pres Wind Pres
1990-03-03 00:00:00 20.
1990-03-03 06:00:00 20.
1990-03-03 12:00:00 20.
1990-03-03 18:00:00 25. 31. 1000. 30. 1000.
1990-03-04 00:00:00 25. 31. 1000. 30. 1000.
1990-03-04 06:00:00 25. 31. 1000. 30. 1000.
1990-03-04 12:00:00 25. 35. 998. 35. 998.
1990-03-04 18:00:00 25. 39. 995. 40. 995.
1990-03-05 00:00:00 25. 39. 995. 40. 995.
1990-03-05 06:00:00 25. 43. 992. 45. 992.
1990-03-05 12:00:00 25. 47. 990. 45. 990.
1990-03-05 18:00:00 25. 51. 987. 50. 987.
1990-03-06 00:00:00 25. 54. 985. 55. 985.
1990-03-06 06:00:00 30. 54. 985. 55. 985.
1990-03-06 12:00:00 25. 49. 988. 50. 988.
1990-03-06 18:00:00 25. 45. 991. 45. 991.
1990-03-07 00:00:00 41. 993. 40. 993.
1990-03-07 06:00:00 39. 995. 40. 995.
1990-03-07 12:00:00 39. 995. 40. 995.
1990-03-07 18:00:00 39. 995. 40. 995.
1990-03-08 00:00:00 39. 995. 40. 995.
1990-03-08 06:00:00 37. 996. 35. 996.
1990-03-08 12:00:00 35. 998. 35. 998.
1990-03-08 18:00:00 33. 999. 30. 999.
1990-03-09 00:00:00 31. 1000. 30. 1000.
jtwc_sh bom neumann neumann jtwc_sh reunion
1990-03-09 06:00:00 27. 1002. 25. 1002.
1990-03-09 12:00:00 27. 1002. 25. 1002.
1990-03-09 18:00:00 27. 1002. 25. 1002.
1990-03-10 00:00:00 27. 1003. 25. 1003.
1990-03-10 06:00:00 25. 1004. 20. 1004.
1990-03-10 12:00:00 27. 1003. 25. 1003.
1990-03-10 18:00:00 27. 1002. 25. 1002.
1990-03-11 00:00:00 27. 1002. 25. 1002. 15. 15.
1990-03-11 06:00:00 31. 1000. 30. 1000. 15. 15.
1990-03-11 12:00:00 31. 1000. 30. 1000. 15. 15.
1990-03-11 18:00:00 31. 1000. 30. 1000. 20. 20.
1990-03-12 00:00:00 35. 998. 35. 998. 25. 25.
1990-03-12 06:00:00 35. 997. 35. 997. 25. 25.
1990-03-12 12:00:00 35. 997. 35. 997. 25. 25.
1990-03-12 18:00:00 37. 996. 35. 996. 25. 25.
1990-03-13 00:00:00 47. 990. 45. 990. 25. 25.
1990-03-13 06:00:00 49. 988. 50. 988. 25. 25.
1990-03-13 12:00:00 54. 985. 55. 985. 30. 30.
1990-03-13 18:00:00 56. 983. 55. 983. 35. 35.
1990-03-14 00:00:00 60. 980. 60. 980. 40. 40.
1990-03-14 06:00:00 64. 978. 65. 978. 45. 45.
1990-03-14 12:00:00 66. 976. 65. 976. 50. 50.
1990-03-14 18:00:00 60. 60.
1990-03-15 00:00:00 65. 65.
jtwc_sh bom neumann neumann jtwc_sh reunion
1990-03-15 06:00:00 70. 70. 52. 976.
1990-03-15 12:00:00 75. 75. 52. 976.
1990-03-15 18:00:00 80. 80. 62. 966.
1990-03-16 00:00:00 80. 80. 62. 966.
1990-03-16 06:00:00 85. 85. 62. 966.
1990-03-16 12:00:00 85. 85. 62. 966.
1990-03-16 18:00:00 85. 85. 72. 954.
1990-03-17 00:00:00 90. 90. 72. 954.
1990-03-17 06:00:00 95. 95. 82. 941.
1990-03-17 12:00:00 100. 100. 92. 927.
1990-03-17 18:00:00 105. 105. 92. 927.
1990-03-18 00:00:00 110. 110. 92. 927.
1990-03-18 06:00:00 110. 110. 92. 927.
1990-03-18 12:00:00 110. 110. 92. 927.
1990-03-18 18:00:00 105. 105. 92. 927.
1990-03-19 00:00:00 100. 100. 82. 941.
1990-03-19 06:00:00 90. 90. 82. 941.
1990-03-19 12:00:00 85. 85. 72. 954.
1990-03-19 18:00:00 80. 80. 62. 966.
1990-03-20 00:00:00 75. 75. 62. 966.
1990-03-20 06:00:00 65. 65. 62. 966.
1990-03-20 12:00:00 60. 60. 62. 966.
1990-03-20 18:00:00 55. 55. 52. 976.
1990-03-21 00:00:00 45. 45. 44. 984.
jtwc_sh bom neumann neumann jtwc_sh reunion
1990-03-21 06:00:00 40. 40. 44. 984.
1990-03-21 12:00:00 40. 40. 36. 991.
1990-03-21 18:00:00 35. 35. 36. 991.
1990-03-22 00:00:00 35. 35. 28. 997.
1990-03-22 06:00:00 30. 30. 28. 997.
1990-03-22 12:00:00 30. 30. 28. 997.
1990-03-22 18:00:00 30. 30. 28. 997.
1990-03-23 00:00:00 30. 30. 28. 997.
1990-03-23 06:00:00 30. 30. 28. 997.
1990-03-23 12:00:00 30. 30. 24. 1000.
1990-03-23 18:00:00 30. 30. 24. 1000.
1990-03-24 00:00:00 30. 30. 24. 1000.
1990-03-24 06:00:00 24. 1000.
1990-03-24 12:00:00
1990-03-24 18:00:00
1990-03-25 00:00:00
1990-03-25 06:00:00
1990-03-25 12:00:00
1990-03-25 18:00:00
1990-03-26 00:00:00
1990-03-26 06:00:00
1990-03-26 12:00:00
1990-03-26 18:00:00
1990-03-27 00:00:00
jtwc_sh bom neumann neumann jtwc_sh reunion
1990-03-27 06:00:00

top of page Links to source data

Source Source file Format
jtwc_sh bsh201990.txt ATCF
bom IDCKMSTM0S.csv:Line=17857:WALTER CSV file (from Excel file)
neumann tracks.sh:Storm=889:WALTER:BSH201990:BM793 HURDAT
neumann tracks.sh:Storm=892:GREGOARA:BSH231990:JTWC HURDAT
jtwc_sh bsh231990.txt ATCF
reunion WMO-Best-Tracks.txt:Line=14948:gregoara WMO (old format)